sensor_id;sensor_type;location;lat;lon;timestamp;P1;durP1;ratioP1;P2;durP2;ratioP2
5787;SDS011;2920;48.158;12.254;2022-12-11T00:00:43;36.80;;;15.98;;
5787;SDS011;2920;48.158;12.254;2022-12-11T00:03:08;41.88;;;17.27;;
5787;SDS011;2920;48.158;12.254;2022-12-11T00:05:34;40.53;;;15.98;;
5787;SDS011;2920;48.158;12.254;2022-12-11T00:07:59;43.67;;;16.17;;
5787;SDS011;2920;48.158;12.254;2022-12-11T00:10:24;39.33;;;15.75;;
5787;SDS011;2920;48.158;12.254;2022-12-11T00:12:50;36.92;;;15.98;;
5787;SDS011;2920;48.158;12.254;2022-12-11T00:15:16;36.45;;;13.63;;
5787;SDS011;2920;48.158;12.254;2022-12-11T00:17:41;40.28;;;16.92;;
5787;SDS011;2920;48.158;12.254;2022-12-11T00:20:06;39.63;;;15.63;;
5787;SDS011;2920;48.158;12.254;2022-12-11T00:22:33;40.75;;;16.63;;
5787;SDS011;2920;48.158;12.254;2022-12-11T00:24:58;38.42;;;17.50;;
5787;SDS011;2920;48.158;12.254;2022-12-11T00:27:23;37.40;;;15.48;;
5787;SDS011;2920;48.158;12.254;2022-12-11T00:29:49;33.22;;;14.73;;
5787;SDS011;2920;48.158;12.254;2022-12-11T00:32:14;41.47;;;14.65;;
5787;SDS011;2920;48.158;12.254;2022-12-11T00:34:39;38.05;;;15.80;;
5787;SDS011;2920;48.158;12.254;2022-12-11T00:37:05;36.58;;;14.50;;
5787;SDS011;2920;48.158;12.254;2022-12-11T00:39:30;38.80;;;15.43;;
5787;SDS011;2920;48.158;12.254;2022-12-11T00:41:55;40.40;;;17.30;;
5787;SDS011;2920;48.158;12.254;2022-12-11T00:44:22;41.40;;;16.98;;
5787;SDS011;2920;48.158;12.254;2022-12-11T00:46:47;40.70;;;16.25;;
5787;SDS011;2920;48.158;12.254;2022-12-11T00:49:12;39.63;;;17.15;;
5787;SDS011;2920;48.158;12.254;2022-12-11T00:51:38;36.10;;;16.38;;
5787;SDS011;2920;48.158;12.254;2022-12-11T00:54:03;37.05;;;15.50;;
5787;SDS011;2920;48.158;12.254;2022-12-11T00:56:28;39.70;;;16.95;;
5787;SDS011;2920;48.158;12.254;2022-12-11T00:58:54;40.40;;;17.25;;
5787;SDS011;2920;48.158;12.254;2022-12-11T01:01:20;38.13;;;16.00;;
5787;SDS011;2920;48.158;12.254;2022-12-11T01:03:47;33.75;;;15.20;;
5787;SDS011;2920;48.158;12.254;2022-12-11T01:06:14;41.25;;;16.60;;
5787;SDS011;2920;48.158;12.254;2022-12-11T01:08:40;35.40;;;14.50;;
5787;SDS011;2920;48.158;12.254;2022-12-11T01:11:06;35.72;;;14.05;;
5787;SDS011;2920;48.158;12.254;2022-12-11T01:13:33;39.88;;;15.77;;
5787;SDS011;2920;48.158;12.254;2022-12-11T01:15:59;34.65;;;14.32;;
5787;SDS011;2920;48.158;12.254;2022-12-11T01:18:24;32.80;;;15.07;;
5787;SDS011;2920;48.158;12.254;2022-12-11T01:20:50;30.77;;;13.55;;
5787;SDS011;2920;48.158;12.254;2022-12-11T01:23:15;38.00;;;14.02;;
5787;SDS011;2920;48.158;12.254;2022-12-11T01:25:41;34.28;;;14.88;;
5787;SDS011;2920;48.158;12.254;2022-12-11T01:28:07;34.50;;;15.10;;
5787;SDS011;2920;48.158;12.254;2022-12-11T01:30:33;34.10;;;14.88;;
5787;SDS011;2920;48.158;12.254;2022-12-11T01:32:59;34.40;;;14.77;;
5787;SDS011;2920;48.158;12.254;2022-12-11T01:35:25;31.70;;;13.95;;
5787;SDS011;2920;48.158;12.254;2022-12-11T01:37:51;35.95;;;14.60;;
5787;SDS011;2920;48.158;12.254;2022-12-11T01:40:17;33.30;;;14.15;;
5787;SDS011;2920;48.158;12.254;2022-12-11T01:42:43;32.38;;;13.25;;
5787;SDS011;2920;48.158;12.254;2022-12-11T01:47:47;35.97;;;13.10;;
5787;SDS011;2920;48.158;12.254;2022-12-11T01:50:13;35.05;;;13.85;;
5787;SDS011;2920;48.158;12.254;2022-12-11T01:52:38;38.03;;;16.73;;
5787;SDS011;2920;48.158;12.254;2022-12-11T01:55:04;33.95;;;14.50;;
5787;SDS011;2920;48.158;12.254;2022-12-11T01:57:29;31.50;;;13.95;;
5787;SDS011;2920;48.158;12.254;2022-12-11T01:59:55;34.00;;;14.80;;
5787;SDS011;2920;48.158;12.254;2022-12-11T02:02:21;31.40;;;14.70;;
5787;SDS011;2920;48.158;12.254;2022-12-11T02:04:50;29.73;;;14.18;;
5787;SDS011;2920;48.158;12.254;2022-12-11T02:07:16;35.47;;;14.27;;
5787;SDS011;2920;48.158;12.254;2022-12-11T02:09:41;40.63;;;14.48;;
5787;SDS011;2920;48.158;12.254;2022-12-11T02:15:02;33.15;;;13.52;;
5787;SDS011;2920;48.158;12.254;2022-12-11T02:20:16;33.45;;;15.05;;
5787;SDS011;2920;48.158;12.254;2022-12-11T02:28:24;35.75;;;14.45;;
5787;SDS011;2920;48.158;12.254;2022-12-11T02:30:54;37.13;;;14.45;;
5787;SDS011;2920;48.158;12.254;2022-12-11T02:35:51;26.63;;;11.68;;
5787;SDS011;2920;48.158;12.254;2022-12-11T02:38:25;37.45;;;14.50;;
5787;SDS011;2920;48.158;12.254;2022-12-11T02:40:54;31.65;;;13.15;;
5787;SDS011;2920;48.158;12.254;2022-12-11T02:43:20;30.65;;;12.75;;
5787;SDS011;2920;48.158;12.254;2022-12-11T02:45:46;30.48;;;13.88;;
5787;SDS011;2920;48.158;12.254;2022-12-11T02:48:12;35.42;;;14.55;;
5787;SDS011;2920;48.158;12.254;2022-12-11T02:50:41;35.63;;;14.98;;
5787;SDS011;2920;48.158;12.254;2022-12-11T02:53:09;28.98;;;13.40;;
5787;SDS011;2920;48.158;12.254;2022-12-11T02:55:36;34.42;;;14.48;;
5787;SDS011;2920;48.158;12.254;2022-12-11T02:58:19;30.42;;;13.02;;
5787;SDS011;2920;48.158;12.254;2022-12-11T03:00:46;32.70;;;13.45;;
5787;SDS011;2920;48.158;12.254;2022-12-11T03:03:11;32.15;;;13.15;;
5787;SDS011;2920;48.158;12.254;2022-12-11T03:05:37;31.00;;;12.93;;
5787;SDS011;2920;48.158;12.254;2022-12-11T03:08:04;30.95;;;13.25;;
5787;SDS011;2920;48.158;12.254;2022-12-11T03:10:29;26.25;;;11.32;;
5787;SDS011;2920;48.158;12.254;2022-12-11T03:12:55;29.05;;;12.40;;
5787;SDS011;2920;48.158;12.254;2022-12-11T03:15:22;27.27;;;10.90;;
5787;SDS011;2920;48.158;12.254;2022-12-11T03:20:43;25.67;;;11.57;;
5787;SDS011;2920;48.158;12.254;2022-12-11T03:23:19;27.02;;;11.40;;
5787;SDS011;2920;48.158;12.254;2022-12-11T03:25:57;29.13;;;12.85;;
5787;SDS011;2920;48.158;12.254;2022-12-11T03:31:11;29.67;;;12.18;;
5787;SDS011;2920;48.158;12.254;2022-12-11T03:33:38;28.17;;;11.88;;
5787;SDS011;2920;48.158;12.254;2022-12-11T03:36:07;27.27;;;12.32;;
5787;SDS011;2920;48.158;12.254;2022-12-11T03:41:18;32.50;;;11.48;;
5787;SDS011;2920;48.158;12.254;2022-12-11T03:43:45;32.55;;;14.43;;
5787;SDS011;2920;48.158;12.254;2022-12-11T03:46:12;27.58;;;11.40;;
5787;SDS011;2920;48.158;12.254;2022-12-11T03:48:39;29.95;;;12.95;;
5787;SDS011;2920;48.158;12.254;2022-12-11T03:51:06;30.08;;;12.63;;
5787;SDS011;2920;48.158;12.254;2022-12-11T03:53:32;27.58;;;12.07;;
5787;SDS011;2920;48.158;12.254;2022-12-11T03:55:58;30.52;;;13.15;;
5787;SDS011;2920;48.158;12.254;2022-12-11T03:58:24;32.97;;;13.13;;
5787;SDS011;2920;48.158;12.254;2022-12-11T04:00:50;27.20;;;12.32;;
5787;SDS011;2920;48.158;12.254;2022-12-11T04:03:15;26.35;;;11.82;;
5787;SDS011;2920;48.158;12.254;2022-12-11T04:05:46;30.02;;;12.60;;
5787;SDS011;2920;48.158;12.254;2022-12-11T04:08:13;29.00;;;12.05;;
5787;SDS011;2920;48.158;12.254;2022-12-11T04:10:39;30.45;;;11.70;;
5787;SDS011;2920;48.158;12.254;2022-12-11T04:13:04;27.50;;;11.88;;
5787;SDS011;2920;48.158;12.254;2022-12-11T04:15:30;28.55;;;13.23;;
5787;SDS011;2920;48.158;12.254;2022-12-11T04:17:55;23.35;;;10.68;;
5787;SDS011;2920;48.158;12.254;2022-12-11T04:20:39;28.73;;;12.10;;
5787;SDS011;2920;48.158;12.254;2022-12-11T04:23:23;26.10;;;10.70;;
5787;SDS011;2920;48.158;12.254;2022-12-11T04:26:14;20.88;;;11.07;;
5787;SDS011;2920;48.158;12.254;2022-12-11T04:28:40;23.77;;;11.50;;
5787;SDS011;2920;48.158;12.254;2022-12-11T04:31:14;19.80;;;9.95;;
5787;SDS011;2920;48.158;12.254;2022-12-11T04:33:41;23.63;;;9.90;;
5787;SDS011;2920;48.158;12.254;2022-12-11T04:36:06;27.08;;;10.23;;
5787;SDS011;2920;48.158;12.254;2022-12-11T04:38:32;24.70;;;9.77;;
5787;SDS011;2920;48.158;12.254;2022-12-11T04:41:02;23.45;;;10.32;;
5787;SDS011;2920;48.158;12.254;2022-12-11T04:43:35;22.55;;;9.75;;
5787;SDS011;2920;48.158;12.254;2022-12-11T04:46:17;19.35;;;9.13;;
5787;SDS011;2920;48.158;12.254;2022-12-11T04:48:44;18.95;;;8.88;;
5787;SDS011;2920;48.158;12.254;2022-12-11T04:51:09;21.15;;;9.60;;
5787;SDS011;2920;48.158;12.254;2022-12-11T04:53:35;20.58;;;9.73;;
5787;SDS011;2920;48.158;12.254;2022-12-11T04:56:00;20.60;;;8.80;;
5787;SDS011;2920;48.158;12.254;2022-12-11T04:58:29;21.40;;;8.95;;
5787;SDS011;2920;48.158;12.254;2022-12-11T05:00:54;18.08;;;8.43;;
5787;SDS011;2920;48.158;12.254;2022-12-11T05:03:20;19.60;;;8.73;;
5787;SDS011;2920;48.158;12.254;2022-12-11T05:05:49;18.75;;;8.20;;
5787;SDS011;2920;48.158;12.254;2022-12-11T05:08:16;17.23;;;7.95;;
5787;SDS011;2920;48.158;12.254;2022-12-11T05:10:41;18.23;;;9.00;;
5787;SDS011;2920;48.158;12.254;2022-12-11T05:13:07;16.50;;;8.35;;
5787;SDS011;2920;48.158;12.254;2022-12-11T05:15:32;20.20;;;8.98;;
5787;SDS011;2920;48.158;12.254;2022-12-11T05:17:57;19.23;;;8.63;;
5787;SDS011;2920;48.158;12.254;2022-12-11T05:20:23;19.73;;;8.68;;
5787;SDS011;2920;48.158;12.254;2022-12-11T05:22:48;17.52;;;7.40;;
5787;SDS011;2920;48.158;12.254;2022-12-11T05:25:13;16.88;;;7.45;;
5787;SDS011;2920;48.158;12.254;2022-12-11T05:27:38;14.70;;;7.60;;
5787;SDS011;2920;48.158;12.254;2022-12-11T05:30:04;16.98;;;8.60;;
5787;SDS011;2920;48.158;12.254;2022-12-11T05:32:30;20.23;;;8.40;;
5787;SDS011;2920;48.158;12.254;2022-12-11T05:34:55;20.17;;;9.45;;
5787;SDS011;2920;48.158;12.254;2022-12-11T05:37:20;18.55;;;8.88;;
5787;SDS011;2920;48.158;12.254;2022-12-11T05:39:46;16.10;;;7.68;;
5787;SDS011;2920;48.158;12.254;2022-12-11T05:42:11;15.50;;;7.15;;
5787;SDS011;2920;48.158;12.254;2022-12-11T05:44:36;16.42;;;8.30;;
5787;SDS011;2920;48.158;12.254;2022-12-11T05:47:01;16.42;;;7.68;;
5787;SDS011;2920;48.158;12.254;2022-12-11T05:49:27;15.82;;;8.25;;
5787;SDS011;2920;48.158;12.254;2022-12-11T05:51:52;17.05;;;8.05;;
5787;SDS011;2920;48.158;12.254;2022-12-11T05:54:17;17.77;;;8.77;;
5787;SDS011;2920;48.158;12.254;2022-12-11T05:56:43;17.20;;;8.50;;
5787;SDS011;2920;48.158;12.254;2022-12-11T05:59:08;17.13;;;8.13;;
5787;SDS011;2920;48.158;12.254;2022-12-11T06:01:35;16.38;;;7.38;;
5787;SDS011;2920;48.158;12.254;2022-12-11T06:04:05;16.98;;;7.05;;
5787;SDS011;2920;48.158;12.254;2022-12-11T06:06:31;15.05;;;7.95;;
5787;SDS011;2920;48.158;12.254;2022-12-11T06:08:57;16.85;;;7.32;;
5787;SDS011;2920;48.158;12.254;2022-12-11T06:11:24;15.02;;;7.38;;
5787;SDS011;2920;48.158;12.254;2022-12-11T06:13:50;16.27;;;8.48;;
5787;SDS011;2920;48.158;12.254;2022-12-11T06:16:16;20.48;;;7.80;;
5787;SDS011;2920;48.158;12.254;2022-12-11T06:18:42;14.80;;;6.90;;
5787;SDS011;2920;48.158;12.254;2022-12-11T06:21:12;16.35;;;7.38;;
5787;SDS011;2920;48.158;12.254;2022-12-11T06:26:03;16.33;;;7.65;;
5787;SDS011;2920;48.158;12.254;2022-12-11T06:28:29;15.20;;;7.85;;
5787;SDS011;2920;48.158;12.254;2022-12-11T06:30:57;17.83;;;8.13;;
5787;SDS011;2920;48.158;12.254;2022-12-11T06:33:23;13.73;;;7.93;;
5787;SDS011;2920;48.158;12.254;2022-12-11T06:35:49;21.02;;;8.60;;
5787;SDS011;2920;48.158;12.254;2022-12-11T06:38:14;18.67;;;8.18;;
5787;SDS011;2920;48.158;12.254;2022-12-11T06:40:40;19.58;;;8.60;;
5787;SDS011;2920;48.158;12.254;2022-12-11T06:43:05;17.60;;;8.63;;
5787;SDS011;2920;48.158;12.254;2022-12-11T06:45:30;21.77;;;9.30;;
5787;SDS011;2920;48.158;12.254;2022-12-11T06:47:55;17.27;;;9.45;;
5787;SDS011;2920;48.158;12.254;2022-12-11T06:50:21;16.15;;;8.10;;
5787;SDS011;2920;48.158;12.254;2022-12-11T06:52:47;17.55;;;8.98;;
5787;SDS011;2920;48.158;12.254;2022-12-11T06:55:12;18.13;;;8.48;;
5787;SDS011;2920;48.158;12.254;2022-12-11T06:57:37;18.60;;;8.27;;
5787;SDS011;2920;48.158;12.254;2022-12-11T07:00:03;17.00;;;8.80;;
5787;SDS011;2920;48.158;12.254;2022-12-11T07:02:29;20.58;;;9.30;;
5787;SDS011;2920;48.158;12.254;2022-12-11T07:04:54;18.70;;;8.63;;
5787;SDS011;2920;48.158;12.254;2022-12-11T07:07:19;13.55;;;7.18;;
5787;SDS011;2920;48.158;12.254;2022-12-11T07:09:44;16.65;;;8.00;;
5787;SDS011;2920;48.158;12.254;2022-12-11T07:12:10;15.85;;;7.80;;
5787;SDS011;2920;48.158;12.254;2022-12-11T07:14:36;21.92;;;9.75;;
5787;SDS011;2920;48.158;12.254;2022-12-11T07:17:01;22.75;;;10.55;;
5787;SDS011;2920;48.158;12.254;2022-12-11T07:19:27;19.67;;;8.70;;
5787;SDS011;2920;48.158;12.254;2022-12-11T07:21:52;16.75;;;8.48;;
5787;SDS011;2920;48.158;12.254;2022-12-11T07:24:18;17.70;;;7.35;;
5787;SDS011;2920;48.158;12.254;2022-12-11T07:26:43;16.88;;;8.02;;
5787;SDS011;2920;48.158;12.254;2022-12-11T07:29:09;22.42;;;9.13;;
5787;SDS011;2920;48.158;12.254;2022-12-11T07:31:34;20.80;;;9.98;;
5787;SDS011;2920;48.158;12.254;2022-12-11T07:34:01;21.40;;;9.38;;
5787;SDS011;2920;48.158;12.254;2022-12-11T07:36:28;19.42;;;8.55;;
5787;SDS011;2920;48.158;12.254;2022-12-11T07:38:54;15.02;;;7.00;;
5787;SDS011;2920;48.158;12.254;2022-12-11T07:41:20;19.98;;;9.35;;
5787;SDS011;2920;48.158;12.254;2022-12-11T07:43:46;18.40;;;8.35;;
5787;SDS011;2920;48.158;12.254;2022-12-11T07:46:19;16.63;;;8.27;;
5787;SDS011;2920;48.158;12.254;2022-12-11T07:48:46;19.65;;;8.32;;
5787;SDS011;2920;48.158;12.254;2022-12-11T07:51:13;17.83;;;8.32;;
5787;SDS011;2920;48.158;12.254;2022-12-11T07:53:42;18.50;;;8.57;;
5787;SDS011;2920;48.158;12.254;2022-12-11T07:56:08;17.08;;;7.75;;
5787;SDS011;2920;48.158;12.254;2022-12-11T07:58:33;23.25;;;8.60;;
5787;SDS011;2920;48.158;12.254;2022-12-11T08:01:00;16.20;;;8.82;;
5787;SDS011;2920;48.158;12.254;2022-12-11T08:03:25;18.80;;;8.55;;
5787;SDS011;2920;48.158;12.254;2022-12-11T08:05:51;18.85;;;9.50;;
5787;SDS011;2920;48.158;12.254;2022-12-11T08:08:17;18.90;;;8.15;;
5787;SDS011;2920;48.158;12.254;2022-12-11T08:10:43;20.67;;;8.82;;
5787;SDS011;2920;48.158;12.254;2022-12-11T08:13:08;16.65;;;7.97;;
5787;SDS011;2920;48.158;12.254;2022-12-11T08:15:34;17.90;;;7.85;;
5787;SDS011;2920;48.158;12.254;2022-12-11T08:18:00;21.60;;;8.27;;
5787;SDS011;2920;48.158;12.254;2022-12-11T08:20:25;19.45;;;8.00;;
5787;SDS011;2920;48.158;12.254;2022-12-11T08:22:51;17.20;;;8.57;;
5787;SDS011;2920;48.158;12.254;2022-12-11T08:25:16;17.85;;;8.48;;
5787;SDS011;2920;48.158;12.254;2022-12-11T08:27:41;15.88;;;7.65;;
5787;SDS011;2920;48.158;12.254;2022-12-11T08:30:07;21.73;;;10.32;;
5787;SDS011;2920;48.158;12.254;2022-12-11T08:32:33;19.73;;;9.15;;
5787;SDS011;2920;48.158;12.254;2022-12-11T08:34:58;19.17;;;10.02;;
5787;SDS011;2920;48.158;12.254;2022-12-11T08:37:24;17.60;;;7.07;;
5787;SDS011;2920;48.158;12.254;2022-12-11T08:39:49;15.77;;;8.43;;
5787;SDS011;2920;48.158;12.254;2022-12-11T08:42:14;21.63;;;9.05;;
5787;SDS011;2920;48.158;12.254;2022-12-11T08:44:39;17.73;;;9.57;;
5787;SDS011;2920;48.158;12.254;2022-12-11T08:47:05;18.73;;;8.77;;
5787;SDS011;2920;48.158;12.254;2022-12-11T08:49:30;16.75;;;8.57;;
5787;SDS011;2920;48.158;12.254;2022-12-11T08:51:55;17.20;;;7.85;;
5787;SDS011;2920;48.158;12.254;2022-12-11T08:54:21;20.02;;;9.30;;
5787;SDS011;2920;48.158;12.254;2022-12-11T08:56:46;19.33;;;8.50;;
5787;SDS011;2920;48.158;12.254;2022-12-11T08:59:11;20.83;;;9.18;;
5787;SDS011;2920;48.158;12.254;2022-12-11T09:01:37;20.58;;;9.48;;
5787;SDS011;2920;48.158;12.254;2022-12-11T09:04:02;18.05;;;8.52;;
5787;SDS011;2920;48.158;12.254;2022-12-11T09:06:28;18.25;;;9.13;;
5787;SDS011;2920;48.158;12.254;2022-12-11T09:08:54;18.73;;;8.63;;
5787;SDS011;2920;48.158;12.254;2022-12-11T09:11:23;19.67;;;8.93;;
5787;SDS011;2920;48.158;12.254;2022-12-11T09:13:50;14.65;;;7.95;;
5787;SDS011;2920;48.158;12.254;2022-12-11T09:16:17;16.98;;;7.40;;
5787;SDS011;2920;48.158;12.254;2022-12-11T09:18:45;18.10;;;8.80;;
5787;SDS011;2920;48.158;12.254;2022-12-11T09:21:12;17.58;;;9.55;;
5787;SDS011;2920;48.158;12.254;2022-12-11T09:23:39;16.73;;;8.07;;
5787;SDS011;2920;48.158;12.254;2022-12-11T09:26:06;15.82;;;8.10;;
5787;SDS011;2920;48.158;12.254;2022-12-11T09:28:32;21.92;;;9.20;;
5787;SDS011;2920;48.158;12.254;2022-12-11T09:30:58;15.55;;;7.78;;
5787;SDS011;2920;48.158;12.254;2022-12-11T09:33:23;18.73;;;8.80;;
5787;SDS011;2920;48.158;12.254;2022-12-11T09:35:55;18.52;;;8.98;;
5787;SDS011;2920;48.158;12.254;2022-12-11T09:38:24;14.40;;;7.57;;
5787;SDS011;2920;48.158;12.254;2022-12-11T09:40:49;19.65;;;9.25;;
5787;SDS011;2920;48.158;12.254;2022-12-11T09:43:48;18.13;;;8.30;;
5787;SDS011;2920;48.158;12.254;2022-12-11T09:46:09;17.40;;;8.32;;
5787;SDS011;2920;48.158;12.254;2022-12-11T09:48:37;20.52;;;10.00;;
5787;SDS011;2920;48.158;12.254;2022-12-11T09:51:26;18.75;;;8.70;;
5787;SDS011;2920;48.158;12.254;2022-12-11T09:54:01;18.38;;;8.68;;
5787;SDS011;2920;48.158;12.254;2022-12-11T10:17:38;18.33;;;8.55;;
5787;SDS011;2920;48.158;12.254;2022-12-11T10:20:10;19.63;;;9.07;;
5787;SDS011;2920;48.158;12.254;2022-12-11T10:22:42;20.65;;;8.80;;
5787;SDS011;2920;48.158;12.254;2022-12-11T10:25:12;20.10;;;8.18;;
5787;SDS011;2920;48.158;12.254;2022-12-11T10:27:42;19.25;;;9.57;;
5787;SDS011;2920;48.158;12.254;2022-12-11T10:32:47;14.25;;;7.65;;
5787;SDS011;2920;48.158;12.254;2022-12-11T10:35:34;18.65;;;8.55;;
5787;SDS011;2920;48.158;12.254;2022-12-11T10:40:37;16.88;;;8.95;;
5787;SDS011;2920;48.158;12.254;2022-12-11T10:43:04;16.73;;;8.25;;
5787;SDS011;2920;48.158;12.254;2022-12-11T10:45:29;19.25;;;10.00;;
5787;SDS011;2920;48.158;12.254;2022-12-11T10:48:05;14.77;;;8.38;;
5787;SDS011;2920;48.158;12.254;2022-12-11T10:50:33;22.63;;;10.40;;
5787;SDS011;2920;48.158;12.254;2022-12-11T10:52:58;18.05;;;8.30;;
5787;SDS011;2920;48.158;12.254;2022-12-11T10:55:26;21.08;;;9.25;;
5787;SDS011;2920;48.158;12.254;2022-12-11T10:57:54;20.15;;;9.40;;
5787;SDS011;2920;48.158;12.254;2022-12-11T11:00:30;18.52;;;8.57;;
5787;SDS011;2920;48.158;12.254;2022-12-11T11:03:01;18.98;;;9.35;;
5787;SDS011;2920;48.158;12.254;2022-12-11T11:05:31;18.85;;;8.63;;
5787;SDS011;2920;48.158;12.254;2022-12-11T11:08:15;18.17;;;8.18;;
5787;SDS011;2920;48.158;12.254;2022-12-11T11:10:53;20.27;;;9.20;;
5787;SDS011;2920;48.158;12.254;2022-12-11T11:13:30;20.58;;;9.98;;
5787;SDS011;2920;48.158;12.254;2022-12-11T11:15:59;25.60;;;10.63;;
5787;SDS011;2920;48.158;12.254;2022-12-11T11:18:25;20.88;;;9.93;;
5787;SDS011;2920;48.158;12.254;2022-12-11T11:20:52;18.77;;;7.70;;
5787;SDS011;2920;48.158;12.254;2022-12-11T11:23:18;52.00;;;20.55;;
5787;SDS011;2920;48.158;12.254;2022-12-11T11:25:52;16.88;;;8.88;;
5787;SDS011;2920;48.158;12.254;2022-12-11T11:28:24;18.17;;;8.82;;
5787;SDS011;2920;48.158;12.254;2022-12-11T11:31:10;19.23;;;9.00;;
5787;SDS011;2920;48.158;12.254;2022-12-11T11:33:44;21.42;;;10.85;;
5787;SDS011;2920;48.158;12.254;2022-12-11T11:36:21;17.90;;;7.93;;
5787;SDS011;2920;48.158;12.254;2022-12-11T11:38:50;18.23;;;8.35;;
5787;SDS011;2920;48.158;12.254;2022-12-11T11:41:23;19.75;;;8.65;;
5787;SDS011;2920;48.158;12.254;2022-12-11T11:43:57;17.63;;;8.88;;
5787;SDS011;2920;48.158;12.254;2022-12-11T11:46:33;20.52;;;11.38;;
5787;SDS011;2920;48.158;12.254;2022-12-11T11:51:46;18.05;;;9.00;;
5787;SDS011;2920;48.158;12.254;2022-12-11T11:54:32;19.50;;;8.13;;
5787;SDS011;2920;48.158;12.254;2022-12-11T11:57:00;14.93;;;8.68;;
5787;SDS011;2920;48.158;12.254;2022-12-11T12:01:56;17.52;;;8.52;;
5787;SDS011;2920;48.158;12.254;2022-12-11T12:04:22;14.75;;;7.63;;
5787;SDS011;2920;48.158;12.254;2022-12-11T12:14:28;15.30;;;7.28;;
5787;SDS011;2920;48.158;12.254;2022-12-11T12:22:11;14.98;;;8.35;;
5787;SDS011;2920;48.158;12.254;2022-12-11T12:24:49;14.73;;;7.47;;
5787;SDS011;2920;48.158;12.254;2022-12-11T12:27:27;15.57;;;8.10;;
5787;SDS011;2920;48.158;12.254;2022-12-11T12:30:08;19.27;;;8.60;;
5787;SDS011;2920;48.158;12.254;2022-12-11T12:37:52;16.75;;;8.65;;
5787;SDS011;2920;48.158;12.254;2022-12-11T12:45:36;16.90;;;8.80;;
5787;SDS011;2920;48.158;12.254;2022-12-11T12:48:08;17.15;;;8.13;;
5787;SDS011;2920;48.158;12.254;2022-12-11T12:50:41;19.77;;;8.77;;
5787;SDS011;2920;48.158;12.254;2022-12-11T12:53:08;15.63;;;8.20;;
5787;SDS011;2920;48.158;12.254;2022-12-11T12:55:40;18.45;;;8.65;;
5787;SDS011;2920;48.158;12.254;2022-12-11T12:58:06;15.43;;;8.25;;
5787;SDS011;2920;48.158;12.254;2022-12-11T13:00:33;12.88;;;6.63;;
5787;SDS011;2920;48.158;12.254;2022-12-11T13:03:01;13.85;;;7.28;;
5787;SDS011;2920;48.158;12.254;2022-12-11T13:05:38;13.82;;;7.65;;
5787;SDS011;2920;48.158;12.254;2022-12-11T13:08:05;11.45;;;5.68;;
5787;SDS011;2920;48.158;12.254;2022-12-11T13:10:32;11.93;;;6.28;;
5787;SDS011;2920;48.158;12.254;2022-12-11T13:12:59;13.38;;;6.82;;
5787;SDS011;2920;48.158;12.254;2022-12-11T13:17:59;13.57;;;6.75;;
5787;SDS011;2920;48.158;12.254;2022-12-11T13:20:27;12.77;;;6.57;;
5787;SDS011;2920;48.158;12.254;2022-12-11T13:22:55;13.55;;;7.05;;
5787;SDS011;2920;48.158;12.254;2022-12-11T13:25:45;12.68;;;6.30;;
5787;SDS011;2920;48.158;12.254;2022-12-11T13:31:00;14.85;;;6.15;;
5787;SDS011;2920;48.158;12.254;2022-12-11T13:33:27;12.95;;;6.47;;
5787;SDS011;2920;48.158;12.254;2022-12-11T13:36:10;13.45;;;6.50;;
5787;SDS011;2920;48.158;12.254;2022-12-11T13:38:43;13.23;;;5.57;;
5787;SDS011;2920;48.158;12.254;2022-12-11T13:41:11;11.13;;;5.15;;
5787;SDS011;2920;48.158;12.254;2022-12-11T13:43:37;10.00;;;5.30;;
5787;SDS011;2920;48.158;12.254;2022-12-11T13:46:07;11.03;;;6.03;;
5787;SDS011;2920;48.158;12.254;2022-12-11T13:48:35;9.65;;;5.82;;
5787;SDS011;2920;48.158;12.254;2022-12-11T13:51:02;8.30;;;4.45;;
5787;SDS011;2920;48.158;12.254;2022-12-11T13:53:28;10.68;;;4.78;;
5787;SDS011;2920;48.158;12.254;2022-12-11T13:55:58;10.35;;;5.10;;
5787;SDS011;2920;48.158;12.254;2022-12-11T13:58:26;10.10;;;5.30;;
5787;SDS011;2920;48.158;12.254;2022-12-11T14:00:52;13.90;;;6.30;;
5787;SDS011;2920;48.158;12.254;2022-12-11T14:03:18;9.70;;;5.50;;
5787;SDS011;2920;48.158;12.254;2022-12-11T14:05:43;9.38;;;4.43;;
5787;SDS011;2920;48.158;12.254;2022-12-11T14:08:09;11.68;;;5.53;;
5787;SDS011;2920;48.158;12.254;2022-12-11T14:10:41;9.32;;;5.38;;
5787;SDS011;2920;48.158;12.254;2022-12-11T14:13:13;11.40;;;6.00;;
5787;SDS011;2920;48.158;12.254;2022-12-11T14:15:43;8.82;;;4.70;;
5787;SDS011;2920;48.158;12.254;2022-12-11T14:18:17;10.48;;;5.80;;
5787;SDS011;2920;48.158;12.254;2022-12-11T14:20:45;11.43;;;5.65;;
5787;SDS011;2920;48.158;12.254;2022-12-11T14:23:22;11.15;;;6.70;;
5787;SDS011;2920;48.158;12.254;2022-12-11T14:25:56;13.07;;;6.25;;
5787;SDS011;2920;48.158;12.254;2022-12-11T14:28:26;15.15;;;6.78;;
5787;SDS011;2920;48.158;12.254;2022-12-11T14:30:55;15.52;;;6.40;;
5787;SDS011;2920;48.158;12.254;2022-12-11T14:33:24;14.52;;;6.25;;
5787;SDS011;2920;48.158;12.254;2022-12-11T14:35:52;10.75;;;5.63;;
5787;SDS011;2920;48.158;12.254;2022-12-11T14:38:21;12.52;;;6.07;;
5787;SDS011;2920;48.158;12.254;2022-12-11T14:40:49;14.13;;;6.50;;
5787;SDS011;2920;48.158;12.254;2022-12-11T14:43:36;9.75;;;5.63;;
5787;SDS011;2920;48.158;12.254;2022-12-11T14:46:16;17.05;;;6.32;;
5787;SDS011;2920;48.158;12.254;2022-12-11T14:48:45;11.52;;;5.78;;
5787;SDS011;2920;48.158;12.254;2022-12-11T14:51:13;11.07;;;6.88;;
5787;SDS011;2920;48.158;12.254;2022-12-11T14:56:15;11.15;;;5.68;;
5787;SDS011;2920;48.158;12.254;2022-12-11T14:59:12;9.05;;;4.15;;
5787;SDS011;2920;48.158;12.254;2022-12-11T15:01:34;11.30;;;5.15;;
5787;SDS011;2920;48.158;12.254;2022-12-11T15:04:22;11.45;;;5.82;;
5787;SDS011;2920;48.158;12.254;2022-12-11T15:06:48;12.60;;;6.03;;
5787;SDS011;2920;48.158;12.254;2022-12-11T15:09:19;13.43;;;6.55;;
5787;SDS011;2920;48.158;12.254;2022-12-11T15:11:52;11.82;;;6.10;;
5787;SDS011;2920;48.158;12.254;2022-12-11T15:14:20;9.98;;;5.32;;
5787;SDS011;2920;48.158;12.254;2022-12-11T15:16:48;13.13;;;6.03;;
5787;SDS011;2920;48.158;12.254;2022-12-11T15:19:30;12.63;;;5.85;;
5787;SDS011;2920;48.158;12.254;2022-12-11T15:22:04;9.32;;;5.35;;
5787;SDS011;2920;48.158;12.254;2022-12-11T15:24:35;11.07;;;5.50;;
5787;SDS011;2920;48.158;12.254;2022-12-11T15:27:02;11.10;;;6.18;;
5787;SDS011;2920;48.158;12.254;2022-12-11T15:29:35;9.38;;;5.22;;
5787;SDS011;2920;48.158;12.254;2022-12-11T15:34:34;10.15;;;5.60;;
5787;SDS011;2920;48.158;12.254;2022-12-11T15:37:23;12.02;;;7.10;;
5787;SDS011;2920;48.158;12.254;2022-12-11T15:39:50;13.02;;;5.70;;
5787;SDS011;2920;48.158;12.254;2022-12-11T15:42:29;11.85;;;5.93;;
5787;SDS011;2920;48.158;12.254;2022-12-11T15:44:56;13.38;;;6.78;;
5787;SDS011;2920;48.158;12.254;2022-12-11T15:47:26;15.38;;;6.97;;
5787;SDS011;2920;48.158;12.254;2022-12-11T15:49:54;13.57;;;6.82;;
5787;SDS011;2920;48.158;12.254;2022-12-11T15:52:22;15.27;;;6.00;;
5787;SDS011;2920;48.158;12.254;2022-12-11T15:54:47;11.88;;;5.45;;
5787;SDS011;2920;48.158;12.254;2022-12-11T15:57:13;16.50;;;7.20;;
5787;SDS011;2920;48.158;12.254;2022-12-11T15:59:40;14.52;;;6.57;;
5787;SDS011;2920;48.158;12.254;2022-12-11T16:02:10;12.15;;;5.90;;
5787;SDS011;2920;48.158;12.254;2022-12-11T16:04:36;10.05;;;4.68;;
5787;SDS011;2920;48.158;12.254;2022-12-11T16:07:02;13.20;;;6.55;;
5787;SDS011;2920;48.158;12.254;2022-12-11T16:09:27;12.15;;;5.63;;
5787;SDS011;2920;48.158;12.254;2022-12-11T16:11:52;12.20;;;5.50;;
5787;SDS011;2920;48.158;12.254;2022-12-11T16:14:18;13.07;;;5.95;;
5787;SDS011;2920;48.158;12.254;2022-12-11T16:16:43;14.18;;;6.05;;
5787;SDS011;2920;48.158;12.254;2022-12-11T16:19:08;11.45;;;5.97;;
5787;SDS011;2920;48.158;12.254;2022-12-11T16:21:34;10.65;;;5.10;;